Aérodrome :
LOGIN :

S'inscrire | Disclaimer

   EN    FR    IT 

 










Légende :    VFR   VFR Marginal   IFR   IFR Intensif   IFR Très Intensif
Visi : 
Plafond : 
>= 8 km
>= 3000ft
5 à 8 km
1000 à 3000 ft
1500m à 5 km
500 à 1000 ft
800 à 1500m
200 à 500 ft
< 800m
< 200 ft
Symboles :   Orages  Brouillard  Fortes neiges  Fortes précipitations  Vent > 20 kt
SIGMETs :   Divers  Orages  Givrage  Turbulence  Onde Orograph.  Cendres Volcan.






- Altitude de l'aérodrome : 308 ft
- Code IATA : POZ


EPPO - Poznan-Lawica

DERNIER METAR :
  • 121330Z 15004KT 9999 -RA FEW009 06/05 Q1009

METARs EXPIRÉS :
  • 121300Z 20002KT 9999 -RA FEW013 06/04 Q1008
  • 121230Z 21003KT 9999 -RA FEW020 OVC040 06/04 Q1009
  • 121200Z 18003KT 9999 -RA OVC030 06/04 Q1009
  • 121130Z 20002KT 9999 OVC032 06/04 Q1009
  • 121100Z 21002KT 9999 -RA OVC033 06/04 Q1009

TAF TAF EPPO
Valide du 12 à 12h jusqu'au 13 à 12h UTC


121130Z 1212/1312 21005KT 9999 -RA OVC025
TEMPO 1215/1301 3000 RA BR BKN004 BKN012
BECMG 1301/1303 31010KT
BECMG 1306/1308 BKN009
TEMPO 1308/1312 2500 RA BKN004



MET'MAP, la Météo Aéronautique d'un coup d'oeil ! - Copyright ORBIFLY Décembre 2007 - Disclaimer

ORBIFLY MET'MAP TEAM :

Programmation & Développement : Alexandra Zaïnal
Conception & Développement : Baudouin d'Aumeries
Co-Programmation & Développement : Marc-Olivier Méhu
Soutien technique & logistique : Manuel Goepfert

Contact : metmap@orbifly.com




SOURCES & CREDITS :

   NOAA